Time;durP1;ratioP1;P1;durP2;ratioP2;P2;SDS_P1;SDS_P2;PMS_P1;PMS_P2;Temp;Humidity;BMP_temperature;BMP_pressure;BME280_temperature;BME280_humidity;BME280_pressure;Samples;Min_cycle;Max_cycle;Signal;HPM_P1;HPM_P2
2021/05/08 00:00:00;;;;;;;4.60;3.87;;;7.50;99.90;;;;;;5032953;28;20430;-45
2021/05/08 00:02:27;;;;;;;4.20;3.70;;;7.30;99.90;;;;;;5031415;28;20429;-45
2021/05/08 00:04:53;;;;;;;5.77;4.00;;;7.30;99.90;;;;;;5032320;28;20507;-46
2021/05/08 00:07:19;;;;;;;6.00;4.70;;;7.30;99.90;;;;;;5018169;28;20857;-45
2021/05/08 00:09:46;;;;;;;5.07;4.00;;;7.50;99.90;;;;;;5035896;28;20784;-45
2021/05/08 00:12:12;;;;;;;4.50;3.57;;;7.20;99.90;;;;;;5035679;28;20491;-46
2021/05/08 00:14:38;;;;;;;5.90;3.90;;;7.50;99.90;;;;;;5035265;28;20527;-46
2021/05/08 00:17:06;;;;;;;4.90;3.93;;;7.40;99.90;;;;;;5035800;28;20436;-46
2021/05/08 00:19:33;;;;;;;5.23;3.73;;;7.20;99.90;;;;;;5035669;28;20439;-45
2021/05/08 00:21:59;;;;;;;4.10;3.30;;;7.50;99.90;;;;;;5036477;28;20429;-46
2021/05/08 00:24:25;;;;;;;4.57;3.97;;;7.40;99.90;;;;;;5035419;28;20475;-46
2021/05/08 00:26:52;;;;;;;5.23;3.47;;;7.30;99.90;;;;;;5035244;28;20463;-46
2021/05/08 00:29:18;;;;;;;4.07;3.67;;;7.40;99.90;;;;;;5035423;28;20952;-46
2021/05/08 00:31:44;;;;;;;6.10;4.37;;;7.10;99.90;;;;;;5035045;28;20436;-45
2021/05/08 00:34:12;;;;;;;5.20;3.83;;;7.10;99.90;;;;;;5034794;28;20458;-47
2021/05/08 00:36:38;;;;;;;4.10;3.60;;;7.30;99.90;;;;;;5034952;28;20850;-47
2021/05/08 00:39:06;;;;;;;5.63;4.83;;;7.10;99.90;;;;;;5016936;28;20457;-46
2021/05/08 00:41:33;;;;;;;5.13;4.20;;;7.10;99.90;;;;;;5017145;28;20443;-46
2021/05/08 00:44:00;;;;;;;5.53;4.60;;;7.10;99.90;;;;;;5016461;28;20534;-45
2021/05/08 00:46:27;;;;;;;7.10;4.00;;;7.30;99.90;;;;;;5034311;28;20441;-47
2021/05/08 00:48:56;;;;;;;4.10;3.70;;;7.00;99.90;;;;;;5016720;28;20971;-46
2021/05/08 00:51:24;;;;;;;4.50;4.10;;;7.30;99.90;;;;;;5034526;28;20554;-46
2021/05/08 00:53:50;;;;;;;5.43;4.47;;;7.20;99.90;;;;;;5034158;28;20464;-46
2021/05/08 00:56:17;;;;;;;6.70;4.67;;;7.10;99.90;;;;;;5034214;28;21020;-45
2021/05/08 00:58:45;;;;;;;5.03;4.50;;;7.20;99.90;;;;;;5016527;28;20446;-47
2021/05/08 01:01:11;;;;;;;6.27;4.03;;;7.10;99.90;;;;;;5034179;28;20434;-46
2021/05/08 01:03:38;;;;;;;5.33;4.23;;;7.20;99.90;;;;;;5016189;28;20814;-46
2021/05/08 01:06:07;;;;;;;9.57;4.43;;;7.20;99.90;;;;;;5034238;28;20434;-46
2021/05/08 01:08:35;;;;;;;5.90;4.80;;;7.20;99.90;;;;;;5016475;28;20532;-46
2021/05/08 01:11:02;;;;;;;7.80;4.77;;;7.20;99.90;;;;;;5034952;28;20703;-47
2021/05/08 01:13:33;;;;;;;5.33;4.83;;;7.20;99.90;;;;;;5016437;28;20464;-45
2021/05/08 01:15:59;;;;;;;7.83;4.07;;;7.20;99.90;;;;;;5018576;28;20498;-45
2021/05/08 01:18:26;;;;;;;5.90;4.03;;;7.00;99.90;;;;;;5017239;28;20815;-45
2021/05/08 01:20:53;;;;;;;4.63;3.93;;;7.10;99.90;;;;;;5035005;28;20445;-46
2021/05/08 01:23:20;;;;;;;4.50;4.07;;;6.70;99.90;;;;;;5015874;28;20452;-45
2021/05/08 01:25:47;;;;;;;5.70;4.03;;;7.10;99.90;;;;;;5016254;28;20452;-45
2021/05/08 01:28:13;;;;;;;4.97;4.47;;;6.90;99.90;;;;;;5033631;28;20432;-45
2021/05/08 01:30:43;;;;;;;6.60;5.20;;;6.60;99.90;;;;;;5033649;28;20527;-45
2021/05/08 01:33:14;;;;;;;7.43;4.90;;;6.90;99.90;;;;;;5033464;28;20471;-46
2021/05/08 01:35:42;;;;;;;5.83;5.07;;;6.60;99.90;;;;;;5015834;28;20476;-45
2021/05/08 01:38:09;;;;;;;6.20;4.80;;;6.90;99.90;;;;;;5016074;28;20812;-45
2021/05/08 01:40:38;;;;;;;5.13;4.50;;;6.80;99.90;;;;;;5033581;28;20434;-45
2021/05/08 01:43:10;;;;;;;4.77;4.23;;;6.20;99.90;;;;;;5033632;28;20431;-45
2021/05/08 01:45:36;;;;;;;5.10;4.60;;;6.80;99.90;;;;;;5033486;28;20436;-45
2021/05/08 01:48:09;;;;;;;8.10;4.70;;;6.20;99.90;;;;;;5015775;28;20535;-46
2021/05/08 01:50:36;;;;;;;7.30;5.17;;;6.20;99.90;;;;;;5033126;28;20465;-46
2021/05/08 01:53:02;;;;;;;8.60;5.27;;;6.90;99.90;;;;;;5032843;28;20929;-46
2021/05/08 01:55:30;;;;;;;9.27;5.30;;;6.80;99.90;;;;;;5033142;28;20921;-45
2021/05/08 01:58:02;;;;;;;7.87;5.13;;;6.40;99.90;;;;;;5015439;28;20509;-45
2021/05/08 02:00:35;;;;;;;8.00;5.30;;;6.90;99.90;;;;;;5033246;28;20435;-46
2021/05/08 02:03:04;;;;;;;10.43;5.67;;;6.60;99.90;;;;;;5015060;28;20960;-46
2021/05/08 02:05:37;;;;;;;8.20;5.30;;;6.60;99.90;;;;;;5015152;28;20462;-46
2021/05/08 02:08:08;;;;;;;8.50;5.73;;;6.60;99.90;;;;;;5015433;28;20471;-45
2021/05/08 02:10:37;;;;;;;5.83;5.27;;;6.70;99.90;;;;;;5033038;28;20937;-45
2021/05/08 02:13:06;;;;;;;6.80;5.00;;;6.80;99.90;;;;;;5015013;28;20800;-45
2021/05/08 02:15:34;;;;;;;6.20;5.13;;;6.60;99.90;;;;;;5014885;28;20513;-46
2021/05/08 02:18:01;;;;;;;8.33;4.67;;;6.50;99.90;;;;;;5032889;28;20968;-45
2021/05/08 02:20:29;;;;;;;4.80;4.30;;;6.70;99.90;;;;;;5033516;28;20436;-46
2021/05/08 02:22:58;;;;;;;5.93;4.47;;;6.30;99.90;;;;;;5015994;28;20463;-45
2021/05/08 02:25:25;;;;;;;7.27;5.27;;;6.50;99.90;;;;;;5033593;28;20494;-44
2021/05/08 02:27:51;;;;;;;9.00;5.50;;;6.80;99.90;;;;;;5014876;28;20988;-45
2021/05/08 02:30:21;;;;;;;7.20;5.00;;;6.60;99.90;;;;;;5014407;28;20451;-45
2021/05/08 02:32:48;;;;;;;8.33;4.60;;;6.50;99.90;;;;;;5032224;28;20443;-45
2021/05/08 02:35:16;;;;;;;7.33;4.60;;;6.40;99.90;;;;;;5014579;28;20479;-44
2021/05/08 02:37:43;;;;;;;5.83;4.87;;;6.40;99.90;;;;;;5032512;28;20432;-45
2021/05/08 02:40:12;;;;;;;9.43;6.73;;;6.70;99.90;;;;;;5032734;28;20435;-45
2021/05/08 02:42:39;;;;;;;5.30;4.63;;;6.40;99.90;;;;;;5014497;28;20831;-44
2021/05/08 02:45:08;;;;;;;6.53;5.03;;;6.30;99.90;;;;;;5032173;28;20509;-45
2021/05/08 02:47:37;;;;;;;7.77;5.47;;;6.80;99.90;;;;;;5014545;28;20456;-45
2021/05/08 02:50:06;;;;;;;5.57;5.00;;;6.50;99.90;;;;;;5032489;28;20436;-45
2021/05/08 02:52:32;;;;;;;6.43;5.10;;;6.60;99.90;;;;;;5014336;28;20429;-45
2021/05/08 02:54:59;;;;;;;7.37;5.67;;;6.50;99.90;;;;;;5014407;28;20966;-45
2021/05/08 02:57:25;;;;;;;6.27;4.67;;;6.50;99.90;;;;;;5032172;28;20518;-45
2021/05/08 02:59:52;;;;;;;6.43;5.13;;;6.60;99.90;;;;;;5013427;28;20434;-45
2021/05/08 03:02:18;;;;;;;4.53;4.10;;;6.20;99.90;;;;;;5013884;28;20453;-45
2021/05/08 03:04:45;;;;;;;6.00;4.90;;;6.70;99.90;;;;;;5032288;28;20940;-45
2021/05/08 03:07:12;;;;;;;8.40;5.53;;;6.50;99.90;;;;;;5014329;28;20806;-45
2021/05/08 03:09:38;;;;;;;17.43;5.67;;;6.50;99.90;;;;;;5032240;28;20439;-45
2021/05/08 03:12:07;;;;;;;5.70;4.95;;;6.40;99.90;;;;;;5014293;28;20955;-45
2021/05/08 03:14:33;;;;;;;8.50;5.20;;;6.50;99.90;;;;;;5031616;28;20225;-45
2021/05/08 03:17:00;;;;;;;8.97;5.60;;;6.50;99.90;;;;;;5014540;28;20480;-45
2021/05/08 03:19:26;;;;;;;7.00;5.27;;;6.30;99.90;;;;;;5014355;28;20912;-45
2021/05/08 03:21:53;;;;;;;5.80;4.93;;;6.60;99.90;;;;;;5032103;28;20439;-46
2021/05/08 03:24:20;;;;;;;6.20;5.13;;;6.10;99.90;;;;;;5031535;28;20475;-45
2021/05/08 03:26:46;;;;;;;8.20;5.03;;;5.80;99.90;;;;;;5014234;28;20456;-44
2021/05/08 03:29:13;;;;;;;6.83;6.10;;;6.60;99.90;;;;;;5014052;28;20443;-46
2021/05/08 03:31:39;;;;;;;5.70;4.77;;;6.10;99.90;;;;;;5032083;28;20978;-45
2021/05/08 03:34:05;;;;;;;7.70;6.73;;;6.30;99.90;;;;;;5013725;28;20471;-46
2021/05/08 03:36:32;;;;;;;8.60;5.47;;;6.50;99.90;;;;;;5013936;28;20570;-46
2021/05/08 03:38:59;;;;;;;17.73;5.90;;;6.50;99.90;;;;;;5031647;28;20435;-46
2021/05/08 03:41:26;;;;;;;8.20;5.13;;;6.40;99.90;;;;;;5035214;28;20763;-45
2021/05/08 03:43:52;;;;;;;5.97;5.10;;;6.30;99.90;;;;;;5035293;28;20452;-46
2021/05/08 03:46:18;;;;;;;6.67;5.00;;;6.50;99.90;;;;;;5018044;28;20423;-46
2021/05/08 03:48:45;;;;;;;7.70;5.03;;;6.70;99.90;;;;;;5035802;28;20830;-46
2021/05/08 03:51:11;;;;;;;6.73;4.70;;;6.60;99.90;;;;;;5035407;28;20469;-46
2021/05/08 03:53:37;;;;;;;8.90;5.27;;;6.30;99.90;;;;;;5034913;28;20473;-46
2021/05/08 03:56:05;;;;;;;7.03;4.83;;;6.20;99.90;;;;;;5035103;28;20985;-46
2021/05/08 03:58:32;;;;;;;7.50;5.33;;;6.40;99.90;;;;;;5035361;28;20434;-46
2021/05/08 04:00:59;;;;;;;6.07;5.40;;;6.70;99.90;;;;;;5035291;28;20435;-46
2021/05/08 04:03:26;;;;;;;6.47;4.93;;;6.40;99.90;;;;;;5034902;28;20436;-46
2021/05/08 04:05:52;;;;;;;7.83;5.10;;;6.80;99.90;;;;;;5017386;28;20768;-46
2021/05/08 04:08:19;;;;;;;6.07;5.47;;;6.40;99.90;;;;;;5035058;28;20566;-45
2021/05/08 04:10:46;;;;;;;7.37;4.50;;;6.80;99.90;;;;;;5035073;28;20451;-46
2021/05/08 04:13:13;;;;;;;7.43;6.47;;;6.30;99.90;;;;;;5034521;28;20477;-46
2021/05/08 04:15:40;;;;;;;7.23;4.90;;;6.50;99.90;;;;;;5035371;28;20483;-46
2021/05/08 04:18:06;;;;;;;7.20;5.27;;;6.80;99.90;;;;;;5017639;28;20444;-46
2021/05/08 04:20:32;;;;;;;4.73;4.00;;;6.90;99.90;;;;;;5017594;28;20937;-46
2021/05/08 04:22:59;;;;;;;9.60;5.40;;;6.90;99.90;;;;;;5016532;28;20460;-46
2021/05/08 04:25:25;;;;;;;5.90;5.30;;;7.10;99.90;;;;;;5034786;28;20564;-46
2021/05/08 04:27:51;;;;;;;11.97;5.00;;;7.20;99.90;;;;;;5034889;28;20699;-46
2021/05/08 04:30:19;;;;;;;5.73;4.10;;;7.30;99.90;;;;;;5034766;28;20882;-46
2021/05/08 04:32:46;;;;;;;6.50;4.67;;;7.40;99.90;;;;;;5034226;28;20440;-46
2021/05/08 04:35:12;;;;;;;5.00;4.57;;;7.40;99.90;;;;;;5034504;28;21009;-46
2021/05/08 04:37:39;;;;;;;6.37;5.70;;;7.50;99.90;;;;;;5034916;28;20437;-46
2021/05/08 04:40:06;;;;;;;5.57;4.63;;;7.50;99.90;;;;;;5034445;28;20433;-46
2021/05/08 04:42:33;;;;;;;5.70;5.17;;;7.50;99.90;;;;;;5034062;28;20929;-46
2021/05/08 04:44:59;;;;;;;6.83;4.90;;;7.20;99.90;;;;;;5034262;28;20484;-46
2021/05/08 04:47:26;;;;;;;6.50;5.30;;;7.80;99.90;;;;;;5016515;28;20542;-46
2021/05/08 04:49:54;;;;;;;6.80;5.23;;;7.90;99.90;;;;;;5034353;28;20431;-46
2021/05/08 04:52:21;;;;;;;9.27;4.90;;;7.80;99.90;;;;;;5032704;28;20446;-46
2021/05/08 04:54:47;;;;;;;5.17;4.40;;;8.10;99.90;;;;;;5034226;28;20455;-46
2021/05/08 04:57:13;;;;;;;5.03;3.77;;;8.10;99.90;;;;;;5034156;28;20477;-46
2021/05/08 04:59:39;;;;;;;5.27;4.40;;;8.20;99.90;;;;;;5034239;28;20465;-46
2021/05/08 05:02:06;;;;;;;6.90;4.40;;;8.60;99.90;;;;;;5034038;28;20480;-46
2021/05/08 05:04:33;;;;;;;9.60;4.50;;;8.60;99.90;;;;;;5034162;28;20720;-46
2021/05/08 05:07:00;;;;;;;6.23;4.30;;;8.60;99.90;;;;;;5034141;28;20493;-46
2021/05/08 05:09:28;;;;;;;8.77;4.50;;;9.20;99.90;;;;;;5034282;28;20475;-46
2021/05/08 05:11:54;;;;;;;6.80;4.17;;;9.50;99.90;;;;;;5034637;28;20450;-46
2021/05/08 05:14:21;;;;;;;6.63;4.00;;;9.10;99.90;;;;;;5034166;28;20475;-46
2021/05/08 05:16:47;;;;;;;7.87;3.53;;;8.90;99.90;;;;;;5033779;28;20482;-46
2021/05/08 05:19:13;;;;;;;6.90;3.97;;;9.30;99.90;;;;;;5033633;28;20439;-46
2021/05/08 05:21:40;;;;;;;8.27;4.40;;;9.00;99.90;;;;;;5033800;28;20482;-46
2021/05/08 05:24:07;;;;;;;7.50;4.03;;;8.80;99.90;;;;;;5033713;28;20510;-46
2021/05/08 05:26:34;;;;;;;7.10;4.07;;;9.20;99.90;;;;;;5033996;28;20442;-46
2021/05/08 05:29:00;;;;;;;7.97;3.40;;;9.20;99.90;;;;;;5034071;28;20505;-46
2021/05/08 05:31:26;;;;;;;7.80;4.20;;;9.10;99.90;;;;;;5033961;28;20900;-46
2021/05/08 05:33:53;;;;;;;7.40;4.50;;;9.20;99.90;;;;;;5033384;28;21033;-46
2021/05/08 05:36:19;;;;;;;9.60;3.83;;;9.00;99.90;;;;;;5015727;28;20487;-46
2021/05/08 05:38:46;;;;;;;8.00;3.80;;;9.60;99.90;;;;;;5033660;28;20431;-46
2021/05/08 05:41:12;;;;;;;6.67;4.07;;;9.40;99.90;;;;;;5033409;28;20991;-46
2021/05/08 05:43:39;;;;;;;8.63;4.60;;;9.80;99.90;;;;;;5032949;28;20451;-46
2021/05/08 05:46:05;;;;;;;6.60;4.00;;;9.20;99.90;;;;;;5033350;28;20823;-46
2021/05/08 05:48:31;;;;;;;7.23;4.20;;;9.50;99.90;;;;;;5033307;28;21001;-46
2021/05/08 05:50:57;;;;;;;7.60;3.60;;;9.60;99.90;;;;;;5033421;28;20466;-46
2021/05/08 05:53:24;;;;;;;7.13;3.83;;;10.10;99.90;;;;;;5033075;28;20967;-46
2021/05/08 05:55:51;;;;;;;10.27;4.60;;;9.70;99.90;;;;;;5033216;28;20554;-46
2021/05/08 05:58:17;;;;;;;11.63;4.13;;;9.30;99.90;;;;;;5033270;28;20932;-46
2021/05/08 06:00:43;;;;;;;6.60;3.30;;;10.10;99.90;;;;;;5033183;28;20439;-46
2021/05/08 06:03:09;;;;;;;8.60;3.43;;;10.40;99.90;;;;;;5032933;28;20438;-46
2021/05/08 06:05:35;;;;;;;7.47;3.30;;;10.20;99.90;;;;;;5032774;28;20451;-46
2021/05/08 06:08:02;;;;;;;8.23;3.70;;;10.10;99.90;;;;;;5033212;28;20754;-46
2021/05/08 06:10:28;;;;;;;10.23;4.10;;;10.10;99.90;;;;;;5032861;28;20459;-46
2021/05/08 06:12:56;;;;;;;8.37;3.77;;;10.00;99.90;;;;;;5032705;28;20994;-46
2021/05/08 06:15:23;;;;;;;5.93;3.37;;;9.50;99.90;;;;;;5033522;28;20486;-46
2021/05/08 06:17:50;;;;;;;8.90;3.40;;;9.90;99.90;;;;;;5035214;28;20432;-46
2021/05/08 06:20:16;;;;;;;6.43;2.90;;;10.20;99.90;;;;;;5034901;28;20443;-46
2021/05/08 06:22:42;;;;;;;7.93;3.23;;;10.40;99.90;;;;;;5034693;28;20439;-46
2021/05/08 06:25:10;;;;;;;9.70;3.90;;;10.40;99.90;;;;;;5014585;28;20483;-46
2021/05/08 06:27:36;;;;;;;6.53;3.37;;;10.50;99.90;;;;;;5032588;28;20435;-46
2021/05/08 06:30:04;;;;;;;8.23;3.53;;;10.50;99.90;;;;;;5032594;28;20431;-46
2021/05/08 06:32:30;;;;;;;9.73;3.87;;;10.70;99.90;;;;;;5032125;28;20435;-46
2021/05/08 06:34:56;;;;;;;11.00;3.83;;;10.70;99.90;;;;;;5032460;28;20913;-46
2021/05/08 06:37:23;;;;;;;8.23;3.70;;;10.70;99.90;;;;;;4998309;28;21008;-46
2021/05/08 06:39:49;;;;;;;10.73;3.70;;;11.10;99.90;;;;;;5032571;28;20481;-47
2021/05/08 06:42:15;;;;;;;7.60;3.23;;;11.10;99.90;;;;;;5032548;28;20451;-46
2021/05/08 06:44:41;;;;;;;8.43;4.50;;;11.00;99.90;;;;;;5032070;28;20513;-46
2021/05/08 06:47:14;;;;;;;9.50;4.23;;;10.80;99.90;;;;;;5032587;28;20446;-46
2021/05/08 06:49:41;;;;;;;5.63;2.93;;;10.90;99.90;;;;;;5032742;28;20463;-46
2021/05/08 06:52:07;;;;;;;6.00;4.13;;;11.00;99.90;;;;;;5032575;28;20479;-45
2021/05/08 06:54:34;;;;;;;7.60;3.80;;;10.90;99.90;;;;;;5031603;28;20448;-46
2021/05/08 06:57:00;;;;;;;8.40;3.63;;;10.80;99.30;;;;;;5032680;28;21034;-46
2021/05/08 06:59:26;;;;;;;5.27;2.53;;;10.80;99.20;;;;;;5032249;28;20912;-45
2021/05/08 07:01:52;;;;;;;6.23;3.20;;;11.30;99.70;;;;;;5031907;28;20448;-45
2021/05/08 07:04:19;;;;;;;6.60;3.30;;;11.30;99.60;;;;;;5031239;28;20456;-46
2021/05/08 07:06:46;;;;;;;6.20;3.00;;;10.50;99.30;;;;;;5031699;28;20424;-46
2021/05/08 07:09:12;;;;;;;5.27;3.10;;;10.40;99.00;;;;;;5031839;28;20916;-46
2021/05/08 07:11:38;;;;;;;5.07;3.37;;;11.00;99.40;;;;;;5032168;28;20928;-46
2021/05/08 07:14:04;;;;;;;6.13;3.30;;;11.00;98.90;;;;;;5030995;28;20470;-46
2021/05/08 07:16:31;;;;;;;3.80;3.10;;;11.00;98.90;;;;;;5031064;28;20471;-46
2021/05/08 07:18:57;;;;;;;4.40;2.60;;;10.90;98.80;;;;;;5014032;28;20798;-46
2021/05/08 07:21:24;;;;;;;8.93;3.27;;;10.90;98.10;;;;;;5014222;28;20463;-46
2021/05/08 07:23:50;;;;;;;7.60;3.23;;;10.80;97.60;;;;;;5031281;28;20563;-46
2021/05/08 07:26:17;;;;;;;5.77;2.60;;;10.80;97.70;;;;;;5031269;28;20443;-46
2021/05/08 07:28:43;;;;;;;5.30;2.50;;;10.80;97.60;;;;;;5030911;28;20448;-47
2021/05/08 07:31:09;;;;;;;7.57;2.93;;;10.70;97.30;;;;;;5031388;28;20750;-47
2021/05/08 07:33:35;;;;;;;7.33;2.33;;;10.30;97.20;;;;;;5031482;28;20445;-47
2021/05/08 07:36:02;;;;;;;7.90;3.20;;;11.10;96.80;;;;;;5031415;28;20468;-46
2021/05/08 07:38:29;;;;;;;6.87;3.10;;;10.80;96.40;;;;;;5031604;28;20434;-47
2021/05/08 07:40:55;;;;;;;8.80;3.80;;;11.20;96.70;;;;;;5031311;28;20440;-46
2021/05/08 07:43:22;;;;;;;8.90;3.43;;;11.10;96.80;;;;;;5031135;28;20424;-46
2021/05/08 07:45:48;;;;;;;9.43;3.07;;;11.40;96.90;;;;;;5031656;28;20454;-46
2021/05/08 07:48:15;;;;;;;10.83;4.47;;;11.10;96.00;;;;;;5031652;28;20432;-46
2021/05/08 07:50:42;;;;;;;9.70;3.37;;;11.20;96.00;;;;;;5031661;28;20440;-46
2021/05/08 07:53:09;;;;;;;7.50;2.90;;;10.80;95.40;;;;;;5030682;28;20443;-45
2021/05/08 07:55:36;;;;;;;5.37;2.53;;;11.10;95.90;;;;;;5030918;28;20483;-46
2021/05/08 07:58:04;;;;;;;3.77;2.63;;;11.20;96.10;;;;;;5031040;28;20435;-47
2021/05/08 08:00:30;;;;;;;5.63;2.57;;;11.40;96.30;;;;;;5031177;28;20431;-47
2021/05/08 08:02:56;;;;;;;7.10;3.33;;;11.40;96.10;;;;;;5030872;28;20794;-46
2021/05/08 08:05:23;;;;;;;4.33;2.93;;;11.10;95.90;;;;;;5031253;28;20462;-47
2021/05/08 08:07:49;;;;;;;10.57;3.20;;;11.30;96.00;;;;;;5030728;28;20443;-47
2021/05/08 08:10:16;;;;;;;9.60;3.67;;;11.50;95.90;;;;;;5031880;28;20446;-46
2021/05/08 08:12:43;;;;;;;5.33;3.03;;;11.10;95.90;;;;;;5031045;28;20443;-47
2021/05/08 08:15:11;;;;;;;4.93;3.07;;;11.50;96.00;;;;;;5031263;28;20473;-47
2021/05/08 08:17:38;;;;;;;8.90;4.10;;;11.50;95.80;;;;;;5030532;28;20484;-47
2021/05/08 08:20:06;;;;;;;5.80;3.30;;;11.90;95.60;;;;;;5013145;28;20452;-46
2021/05/08 08:22:33;;;;;;;5.00;3.07;;;12.00;95.00;;;;;;5030790;28;20441;-47
2021/05/08 08:24:59;;;;;;;5.50;3.50;;;12.10;94.60;;;;;;5030738;28;20464;-46
2021/05/08 08:27:26;;;;;;;5.50;3.30;;;12.20;94.10;;;;;;5034054;28;20810;-48
2021/05/08 08:29:53;;;;;;;6.57;4.10;;;12.20;93.30;;;;;;5034780;28;20428;-47
2021/05/08 08:32:20;;;;;;;4.87;3.10;;;12.30;92.80;;;;;;5034346;28;20439;-47
2021/05/08 08:34:46;;;;;;;7.93;4.10;;;12.20;92.20;;;;;;5016883;28;20837;-46
2021/05/08 08:37:12;;;;;;;5.97;4.27;;;12.40;91.80;;;;;;5034272;28;20483;-47
2021/05/08 08:39:39;;;;;;;4.57;3.10;;;12.60;90.90;;;;;;5034293;28;20449;-48
2021/05/08 08:42:07;;;;;;;3.67;3.23;;;12.20;90.50;;;;;;5034753;28;20429;-47
2021/05/08 08:44:34;;;;;;;5.70;3.27;;;11.80;90.70;;;;;;5033323;28;20447;-47
2021/05/08 08:47:02;;;;;;;6.37;4.10;;;12.60;91.20;;;;;;5033712;28;20515;-47
2021/05/08 08:49:29;;;;;;;7.00;4.20;;;12.10;90.80;;;;;;5034339;28;20431;-47
2021/05/08 08:51:55;;;;;;;8.23;4.10;;;12.60;90.10;;;;;;5033931;28;20431;-48
2021/05/08 08:54:22;;;;;;;11.23;3.90;;;12.50;87.20;;;;;;5033844;28;20796;-48
2021/05/08 08:56:51;;;;;;;4.87;3.53;;;12.50;86.30;;;;;;5033783;28;20578;-47
2021/05/08 08:59:26;;;;;;;5.13;3.13;;;13.30;84.50;;;;;;5034369;28;20484;-47
2021/05/08 09:01:52;;;;;;;8.83;3.77;;;13.00;83.70;;;;;;5033964;28;20448;-45
2021/05/08 09:04:20;;;;;;;5.43;3.10;;;12.90;81.70;;;;;;5033683;28;20511;-45
2021/05/08 09:06:47;;;;;;;7.50;4.57;;;13.30;84.30;;;;;;5035184;28;20535;-46
2021/05/08 09:09:15;;;;;;;4.27;2.87;;;13.00;83.90;;;;;;5035666;28;20485;-46
2021/05/08 09:11:47;;;;;;;7.33;3.93;;;13.20;83.00;;;;;;5033976;28;20452;-46
2021/05/08 09:14:22;;;;;;;7.47;4.17;;;12.90;81.50;;;;;;5033155;28;20494;-46
2021/05/08 09:17:02;;;;;;;5.90;2.70;;;13.40;80.10;;;;;;5033293;28;20479;-47
2021/05/08 09:19:29;;;;;;;6.27;2.87;;;13.10;77.80;;;;;;5032802;28;20441;-46
2021/05/08 09:21:55;;;;;;;3.50;2.63;;;12.90;77.10;;;;;;5033320;28;20434;-47
2021/05/08 09:24:22;;;;;;;7.80;3.33;;;13.60;76.50;;;;;;5032825;28;20489;-47
2021/05/08 09:26:50;;;;;;;4.40;2.73;;;13.00;76.50;;;;;;5033070;28;20466;-47
2021/05/08 09:29:17;;;;;;;5.00;2.77;;;13.50;78.40;;;;;;5033527;28;20991;-46
2021/05/08 09:31:57;;;;;;;3.30;2.70;;;13.40;78.40;;;;;;5033039;28;20416;-47
2021/05/08 09:34:24;;;;;;;4.63;2.77;;;13.10;77.90;;;;;;5033111;28;20789;-46
2021/05/08 09:36:52;;;;;;;3.47;2.20;;;13.60;77.20;;;;;;5033342;28;20489;-47
2021/05/08 09:39:29;;;;;;;3.67;2.23;;;13.50;75.00;;;;;;5031864;28;20431;-47
2021/05/08 09:41:55;;;;;;;7.00;3.33;;;13.90;75.20;;;;;;5032757;28;20462;-46
2021/05/08 09:44:21;;;;;;;6.23;2.40;;;14.20;75.80;;;;;;5032442;28;20470;-46
2021/05/08 09:46:47;;;;;;;3.70;2.40;;;13.90;75.10;;;;;;5032206;28;20435;-47
2021/05/08 09:49:15;;;;;;;4.33;2.70;;;14.40;75.10;;;;;;5033013;28;20432;-46
2021/05/08 09:51:42;;;;;;;4.13;2.67;;;14.30;72.80;;;;;;5015182;28;20445;-47
2021/05/08 09:54:13;;;;;;;5.37;2.70;;;14.60;73.50;;;;;;5032686;28;20443;-46
2021/05/08 09:56:41;;;;;;;4.73;2.20;;;15.00;70.90;;;;;;5033180;28;20468;-46
2021/05/08 09:59:24;;;;;;;3.87;2.63;;;14.60;67.40;;;;;;5014949;28;20462;-47
2021/05/08 10:02:10;;;;;;;5.77;2.67;;;14.80;67.40;;;;;;5032387;28;20515;-47
2021/05/08 10:04:39;;;;;;;4.80;2.60;;;15.00;67.30;;;;;;5032457;28;20487;-46
2021/05/08 10:07:06;;;;;;;5.80;3.50;;;15.10;66.50;;;;;;5033139;28;20435;-46
2021/05/08 10:09:34;;;;;;;5.47;2.47;;;14.80;66.60;;;;;;5033134;28;20434;-47
2021/05/08 10:12:03;;;;;;;7.50;2.93;;;14.70;66.60;;;;;;5033243;28;20446;-46
2021/05/08 10:14:30;;;;;;;6.60;3.43;;;14.50;66.20;;;;;;5033083;28;20456;-48
2021/05/08 10:16:57;;;;;;;4.60;3.37;;;14.70;66.60;;;;;;5032188;28;20471;-46
2021/05/08 10:19:27;;;;;;;4.03;3.10;;;14.70;66.40;;;;;;5031675;28;20442;-45
2021/05/08 10:21:55;;;;;;;8.53;3.20;;;15.30;66.80;;;;;;5032257;28;20513;-45
2021/05/08 10:24:22;;;;;;;3.77;2.70;;;15.00;65.70;;;;;;5031602;28;20988;-47
2021/05/08 10:26:50;;;;;;;4.70;3.40;;;14.40;64.20;;;;;;5013712;28;20789;-46
2021/05/08 10:29:18;;;;;;;4.70;2.83;;;14.10;65.50;;;;;;5013499;28;20836;-47
2021/05/08 10:31:44;;;;;;;4.00;2.37;;;14.50;66.20;;;;;;5031719;28;20440;-47
2021/05/08 10:34:11;;;;;;;4.10;2.90;;;14.20;63.30;;;;;;5013310;28;20473;-46
2021/05/08 10:36:47;;;;;;;5.67;2.93;;;14.40;64.60;;;;;;5031632;28;20504;-46
2021/05/08 10:39:13;;;;;;;4.87;2.83;;;14.40;65.20;;;;;;5031374;28;20442;-46
2021/05/08 10:41:51;;;;;;;8.43;3.27;;;14.00;64.70;;;;;;5031419;28;20447;-46
2021/05/08 10:44:44;;;;;;;4.30;2.83;;;14.10;64.30;;;;;;5013185;28;20506;-46
2021/05/08 10:47:14;;;;;;;4.63;3.40;;;14.10;64.00;;;;;;5031628;28;20439;-46
2021/05/08 10:49:40;;;;;;;4.60;3.27;;;14.20;64.00;;;;;;5030397;28;20446;-45
2021/05/08 10:52:07;;;;;;;6.00;3.50;;;14.40;64.70;;;;;;5014228;28;20950;-46
2021/05/08 10:54:54;;;;;;;4.00;3.63;;;14.50;64.70;;;;;;5031377;28;20451;-46
2021/05/08 10:57:23;;;;;;;6.67;4.23;;;14.90;64.20;;;;;;5031904;28;20481;-46
2021/05/08 11:00:26;;;;;;;4.87;3.90;;;14.70;64.70;;;;;;5032501;28;20434;-46
2021/05/08 11:03:00;;;;;;;5.73;4.00;;;14.80;64.30;;;;;;5032073;28;20434;-46
2021/05/08 11:05:28;;;;;;;5.10;4.57;;;14.90;63.70;;;;;;5031912;28;20536;-46
2021/05/08 11:07:55;;;;;;;5.73;3.43;;;14.90;64.90;;;;;;5032814;28;20434;-46
2021/05/08 11:10:38;;;;;;;4.87;3.83;;;14.60;61.90;;;;;;5031349;28;20438;-46
2021/05/08 11:13:07;;;;;;;5.90;3.90;;;14.90;62.00;;;;;;5031830;28;20461;-45
2021/05/08 11:16:16;;;;;;;9.47;3.90;;;14.90;62.20;;;;;;5032160;28;20466;-45
2021/05/08 11:18:44;;;;;;;4.93;3.27;;;14.60;61.90;;;;;;5016670;28;20495;-46
2021/05/08 11:21:50;;;;;;;4.40;3.50;;;14.30;62.20;;;;;;5030886;28;20442;-46
2021/05/08 11:24:38;;;;;;;5.00;3.50;;;14.40;61.70;;;;;;5058512;22;20493;-50
2021/05/08 11:27:19;;;;;;;4.50;3.20;;;14.30;61.40;;;;;;5049590;28;20483;-50
2021/05/08 11:29:46;;;;;;;4.07;3.37;;;14.30;60.50;;;;;;5048831;28;20883;-50
2021/05/08 11:32:13;;;;;;;7.10;4.20;;;14.20;60.20;;;;;;5049051;28;20429;-50
2021/05/08 11:34:43;;;;;;;5.43;3.50;;;14.30;60.20;;;;;;5048611;28;20826;-50
2021/05/08 11:37:12;;;;;;;5.20;2.67;;;14.40;60.30;;;;;;5048989;28;20492;-50
2021/05/08 11:39:39;;;;;;;4.43;3.67;;;14.50;60.20;;;;;;5031386;28;20844;-50
2021/05/08 11:42:12;;;;;;;4.67;3.47;;;14.50;60.80;;;;;;5048661;28;20770;-50
2021/05/08 11:44:41;;;;;;;9.70;3.97;;;14.40;61.00;;;;;;5048670;28;20990;-50
2021/05/08 11:49:56;;;;;;;5.90;3.37;;;14.70;60.00;;;;;;5048612;28;20449;-50
2021/05/08 11:52:32;;;;;;;5.20;3.50;;;14.90;59.50;;;;;;5048951;28;20463;-51
2021/05/08 11:54:58;;;;;;;4.40;3.53;;;15.20;59.70;;;;;;5049338;28;20449;-50
2021/05/08 11:57:25;;;;;;;3.90;3.27;;;14.80;59.30;;;;;;5031373;28;20477;-49
2021/05/08 11:59:51;;;;;;;3.97;3.10;;;14.80;57.40;;;;;;5049370;28;20454;-50
2021/05/08 12:02:20;;;;;;;4.20;3.07;;;14.60;57.50;;;;;;5052051;28;20536;-50
2021/05/08 12:04:48;;;;;;;3.00;2.63;;;14.70;57.40;;;;;;5053277;28;20526;-50
2021/05/08 12:07:18;;;;;;;4.63;3.60;;;14.50;58.00;;;;;;5052604;28;20446;-49
2021/05/08 12:09:44;;;;;;;4.47;3.50;;;14.50;57.60;;;;;;5053592;28;20454;-49
2021/05/08 12:12:12;;;;;;;5.37;3.50;;;14.70;57.50;;;;;;5053060;28;20765;-50
2021/05/08 12:14:39;;;;;;;5.00;3.30;;;14.70;57.90;;;;;;5053135;28;20462;-50
2021/05/08 12:17:07;;;;;;;5.13;3.40;;;14.70;58.00;;;;;;5053262;28;20485;-50
2021/05/08 12:19:34;;;;;;;4.23;2.90;;;15.00;57.90;;;;;;5052999;28;20430;-50
2021/05/08 12:22:00;;;;;;;4.10;2.90;;;14.60;56.70;;;;;;5053293;28;20904;-50
2021/05/08 12:24:27;;;;;;;3.50;3.20;;;14.60;56.10;;;;;;5053014;28;20783;-50
2021/05/08 12:26:53;;;;;;;4.60;3.60;;;14.60;56.20;;;;;;5053430;28;20942;-50
2021/05/08 12:29:19;;;;;;;4.40;3.00;;;14.10;55.90;;;;;;5052431;28;20431;-51
2021/05/08 12:31:46;;;;;;;5.80;3.37;;;15.00;57.10;;;;;;5052664;28;20481;-50
2021/05/08 12:34:15;;;;;;;4.20;3.80;;;14.70;56.90;;;;;;5054035;28;20493;-51
2021/05/08 12:36:57;;;;;;;6.50;3.27;;;14.80;57.20;;;;;;5053168;28;20466;-50
2021/05/08 12:39:25;;;;;;;5.20;3.23;;;14.80;57.10;;;;;;5034960;28;20450;-50
2021/05/08 12:41:53;;;;;;;4.47;3.70;;;14.90;56.50;;;;;;5052402;28;21013;-50
2021/05/08 12:44:28;;;;;;;3.83;3.43;;;14.70;56.60;;;;;;5052295;28;20442;-51
2021/05/08 12:46:57;;;;;;;4.70;3.87;;;14.80;56.60;;;;;;5053500;28;20461;-50
2021/05/08 12:49:24;;;;;;;6.17;3.97;;;14.70;56.90;;;;;;5052723;28;20435;-50
2021/05/08 12:51:52;;;;;;;3.97;3.53;;;14.80;57.30;;;;;;5052491;28;20442;-51
2021/05/08 12:54:20;;;;;;;4.03;3.70;;;15.10;57.00;;;;;;5052319;28;20451;-58
2021/05/08 12:56:47;;;;;;;4.80;3.23;;;14.90;56.80;;;;;;5052865;28;20894;-50